KSPF/SPF METAR and TAF weather

Enter ICAO airport designator
Station Type Date Time Source
KSPF METAR 2019/04/24 15:55 UTC NOAA

KSPF 241555Z AUTO 30011KT 10SM SCT110 16/05 A2995 RMK AO2


Station Type Date Time Source
KSPF Decoded METAR 2019/04/24 15:55 UTC NOAA

Spearfish / Clyde Ice, SD, United States (KSPF) 44-29N 103-47W
Apr 24, 2019 - 11:55 AM EDT / 2019.04.24 1555 UTC
Wind: from the WNW (300 degrees) at 13 MPH (11 KT):0
Visibility: 10 mile(s):0
Sky conditions: partly cloudy
Temperature: 60 F (16 C)
Dew Point: 41 F (5 C)
Relative Humidity: 47%
Pressure (altimeter): 29.95 in. Hg (1014 hPa)
ob: KSPF 241555Z AUTO 30011KT 10SM SCT110 16/05 A2995 RMK AO2
cycle: 16

Station Type Date Time Source
KSPF TAF UTC NOAA

Error!

Example: see airport list